sensor_id;sensor_type;location;lat;lon;timestamp;P1;durP1;ratioP1;P2;durP2;ratioP2
29838;SDS011;18669;53.356;-1.464;2023-05-06T14:17:39;8.68;;;2.30;;
29838;SDS011;18669;53.356;-1.464;2023-05-06T14:20:24;4.72;;;2.17;;
29838;SDS011;18669;53.356;-1.464;2023-05-06T14:23:09;5.07;;;2.30;;
29838;SDS011;18669;53.356;-1.464;2023-05-06T14:25:54;4.43;;;1.88;;
29838;SDS011;18669;53.356;-1.464;2023-05-06T14:28:39;5.18;;;2.00;;
29838;SDS011;18669;53.356;-1.464;2023-05-06T14:31:24;7.50;;;2.10;;
29838;SDS011;18669;53.356;-1.464;2023-05-06T14:34:09;3.88;;;2.03;;
29838;SDS011;18669;53.356;-1.464;2023-05-06T14:36:54;5.07;;;1.90;;
29838;SDS011;18669;53.356;-1.464;2023-05-06T14:39:39;9.70;;;2.05;;
29838;SDS011;18669;53.356;-1.464;2023-05-06T14:42:24;8.15;;;2.85;;
29838;SDS011;18669;53.356;-1.464;2023-05-06T14:45:09;6.68;;;2.70;;
29838;SDS011;18669;53.356;-1.464;2023-05-06T14:47:54;7.40;;;2.60;;
29838;SDS011;18669;53.356;-1.464;2023-05-06T14:50:39;6.70;;;3.00;;
29838;SDS011;18669;53.356;-1.464;2023-05-06T14:53:24;10.95;;;2.92;;
29838;SDS011;18669;53.356;-1.464;2023-05-06T14:56:09;10.48;;;3.13;;
29838;SDS011;18669;53.356;-1.464;2023-05-06T14:58:53;6.85;;;2.60;;
29838;SDS011;18669;53.356;-1.464;2023-05-06T15:01:38;5.72;;;2.80;;
29838;SDS011;18669;53.356;-1.464;2023-05-06T15:04:23;8.60;;;2.72;;
29838;SDS011;18669;53.356;-1.464;2023-05-06T15:07:08;8.32;;;2.80;;
29838;SDS011;18669;53.356;-1.464;2023-05-06T15:09:53;6.45;;;2.78;;
29838;SDS011;18669;53.356;-1.464;2023-05-06T15:12:38;4.88;;;2.20;;
29838;SDS011;18669;53.356;-1.464;2023-05-06T15:15:23;6.85;;;2.88;;
29838;SDS011;18669;53.356;-1.464;2023-05-06T15:18:08;9.13;;;2.72;;
29838;SDS011;18669;53.356;-1.464;2023-05-06T15:20:53;11.10;;;2.38;;
29838;SDS011;18669;53.356;-1.464;2023-05-06T15:23:38;8.20;;;2.40;;
29838;SDS011;18669;53.356;-1.464;2023-05-06T15:26:23;7.22;;;2.20;;
29838;SDS011;18669;53.356;-1.464;2023-05-06T15:29:08;6.00;;;2.33;;
29838;SDS011;18669;53.356;-1.464;2023-05-06T15:31:52;5.38;;;2.20;;
29838;SDS011;18669;53.356;-1.464;2023-05-06T15:34:37;6.05;;;2.28;;
29838;SDS011;18669;53.356;-1.464;2023-05-06T15:37:22;6.35;;;2.40;;
29838;SDS011;18669;53.356;-1.464;2023-05-06T15:40:08;6.30;;;2.60;;
29838;SDS011;18669;53.356;-1.464;2023-05-06T15:42:55;5.00;;;2.28;;
29838;SDS011;18669;53.356;-1.464;2023-05-06T15:45:42;9.45;;;2.38;;
29838;SDS011;18669;53.356;-1.464;2023-05-06T15:48:27;3.25;;;2.17;;
29838;SDS011;18669;53.356;-1.464;2023-05-06T15:51:12;7.50;;;2.17;;
29838;SDS011;18669;53.356;-1.464;2023-05-06T15:53:57;7.82;;;2.60;;
29838;SDS011;18669;53.356;-1.464;2023-05-06T15:56:43;8.50;;;2.50;;
29838;SDS011;18669;53.356;-1.464;2023-05-06T15:59:28;8.40;;;6.15;;
29838;SDS011;18669;53.356;-1.464;2023-05-06T16:02:13;5.53;;;2.30;;
29838;SDS011;18669;53.356;-1.464;2023-05-06T16:04:58;3.63;;;1.90;;
29838;SDS011;18669;53.356;-1.464;2023-05-06T16:07:43;4.43;;;1.85;;
29838;SDS011;18669;53.356;-1.464;2023-05-06T16:10:28;6.30;;;2.00;;
29838;SDS011;18669;53.356;-1.464;2023-05-06T16:13:13;5.25;;;2.15;;
29838;SDS011;18669;53.356;-1.464;2023-05-06T16:15:58;6.15;;;1.73;;
29838;SDS011;18669;53.356;-1.464;2023-05-06T16:18:43;3.70;;;1.88;;
29838;SDS011;18669;53.356;-1.464;2023-05-06T16:21:28;3.90;;;1.90;;
29838;SDS011;18669;53.356;-1.464;2023-05-06T16:24:13;3.38;;;1.80;;
29838;SDS011;18669;53.356;-1.464;2023-05-06T16:26:57;4.93;;;2.00;;
29838;SDS011;18669;53.356;-1.464;2023-05-06T16:29:42;5.07;;;2.40;;
29838;SDS011;18669;53.356;-1.464;2023-05-06T16:32:27;6.07;;;1.95;;
29838;SDS011;18669;53.356;-1.464;2023-05-06T16:35:12;4.30;;;2.47;;
29838;SDS011;18669;53.356;-1.464;2023-05-06T16:37:57;5.22;;;1.98;;
29838;SDS011;18669;53.356;-1.464;2023-05-06T16:40:45;8.93;;;2.55;;
29838;SDS011;18669;53.356;-1.464;2023-05-06T16:43:31;6.28;;;2.17;;
29838;SDS011;18669;53.356;-1.464;2023-05-06T16:46:16;4.70;;;2.25;;
29838;SDS011;18669;53.356;-1.464;2023-05-06T16:49:01;5.97;;;2.35;;
29838;SDS011;18669;53.356;-1.464;2023-05-06T16:51:47;5.13;;;2.13;;
29838;SDS011;18669;53.356;-1.464;2023-05-06T16:54:32;7.13;;;2.60;;
29838;SDS011;18669;53.356;-1.464;2023-05-06T16:57:17;7.28;;;2.75;;
29838;SDS011;18669;53.356;-1.464;2023-05-06T17:00:03;3.35;;;2.10;;
29838;SDS011;18669;53.356;-1.464;2023-05-06T17:02:51;6.38;;;2.60;;
29838;SDS011;18669;53.356;-1.464;2023-05-06T17:05:36;5.00;;;2.50;;
29838;SDS011;18669;53.356;-1.464;2023-05-06T17:08:20;4.18;;;2.55;;
29838;SDS011;18669;53.356;-1.464;2023-05-06T17:11:05;4.85;;;2.00;;
29838;SDS011;18669;53.356;-1.464;2023-05-06T17:13:50;3.67;;;2.00;;
29838;SDS011;18669;53.356;-1.464;2023-05-06T17:16:39;2.63;;;1.77;;
29838;SDS011;18669;53.356;-1.464;2023-05-06T17:19:26;3.22;;;1.88;;
29838;SDS011;18669;53.356;-1.464;2023-05-06T17:22:11;5.28;;;1.98;;
29838;SDS011;18669;53.356;-1.464;2023-05-06T17:24:56;4.47;;;1.77;;
29838;SDS011;18669;53.356;-1.464;2023-05-06T17:27:41;5.15;;;1.98;;
29838;SDS011;18669;53.356;-1.464;2023-05-06T17:30:26;5.20;;;2.33;;
29838;SDS011;18669;53.356;-1.464;2023-05-06T17:33:11;6.05;;;2.30;;
29838;SDS011;18669;53.356;-1.464;2023-05-06T17:35:55;5.72;;;1.98;;
29838;SDS011;18669;53.356;-1.464;2023-05-06T17:38:41;6.10;;;2.08;;
29838;SDS011;18669;53.356;-1.464;2023-05-06T17:41:26;6.60;;;2.22;;
29838;SDS011;18669;53.356;-1.464;2023-05-06T17:44:11;4.22;;;2.22;;
29838;SDS011;18669;53.356;-1.464;2023-05-06T17:46:56;4.45;;;2.13;;
29838;SDS011;18669;53.356;-1.464;2023-05-06T17:49:41;7.70;;;2.28;;
29838;SDS011;18669;53.356;-1.464;2023-05-06T17:52:26;4.60;;;2.17;;
29838;SDS011;18669;53.356;-1.464;2023-05-06T17:55:10;4.38;;;1.85;;
29838;SDS011;18669;53.356;-1.464;2023-05-06T17:57:55;7.63;;;2.25;;
29838;SDS011;18669;53.356;-1.464;2023-05-06T18:00:40;9.00;;;2.10;;
29838;SDS011;18669;53.356;-1.464;2023-05-06T18:03:25;5.18;;;2.15;;
29838;SDS011;18669;53.356;-1.464;2023-05-06T18:06:10;8.63;;;2.35;;
29838;SDS011;18669;53.356;-1.464;2023-05-06T18:08:56;6.32;;;2.17;;
29838;SDS011;18669;53.356;-1.464;2023-05-06T18:11:40;7.35;;;2.33;;
29838;SDS011;18669;53.356;-1.464;2023-05-06T18:14:26;3.40;;;2.10;;
29838;SDS011;18669;53.356;-1.464;2023-05-06T18:17:10;10.13;;;2.50;;
29838;SDS011;18669;53.356;-1.464;2023-05-06T18:19:55;5.18;;;2.45;;
29838;SDS011;18669;53.356;-1.464;2023-05-06T18:22:40;4.70;;;2.50;;
29838;SDS011;18669;53.356;-1.464;2023-05-06T18:25:25;7.35;;;2.80;;
29838;SDS011;18669;53.356;-1.464;2023-05-06T18:28:11;6.80;;;2.67;;
29838;SDS011;18669;53.356;-1.464;2023-05-06T18:30:56;6.65;;;2.65;;
29838;SDS011;18669;53.356;-1.464;2023-05-06T18:33:41;5.95;;;2.80;;
29838;SDS011;18669;53.356;-1.464;2023-05-06T18:36:26;6.38;;;2.95;;
29838;SDS011;18669;53.356;-1.464;2023-05-06T18:39:11;5.95;;;2.70;;
29838;SDS011;18669;53.356;-1.464;2023-05-06T18:41:58;5.70;;;2.70;;
29838;SDS011;18669;53.356;-1.464;2023-05-06T18:44:44;4.72;;;2.80;;
29838;SDS011;18669;53.356;-1.464;2023-05-06T18:47:29;6.90;;;3.28;;
29838;SDS011;18669;53.356;-1.464;2023-05-06T18:50:16;8.30;;;2.75;;
29838;SDS011;18669;53.356;-1.464;2023-05-06T18:53:02;9.27;;;3.45;;
29838;SDS011;18669;53.356;-1.464;2023-05-06T18:55:47;5.40;;;3.03;;
29838;SDS011;18669;53.356;-1.464;2023-05-06T18:58:36;9.13;;;3.15;;
29838;SDS011;18669;53.356;-1.464;2023-05-06T19:01:23;11.10;;;2.90;;
29838;SDS011;18669;53.356;-1.464;2023-05-06T19:04:08;4.88;;;2.85;;
29838;SDS011;18669;53.356;-1.464;2023-05-06T19:06:53;5.95;;;2.92;;
29838;SDS011;18669;53.356;-1.464;2023-05-06T19:09:38;6.93;;;3.00;;
29838;SDS011;18669;53.356;-1.464;2023-05-06T19:12:23;4.82;;;3.00;;
29838;SDS011;18669;53.356;-1.464;2023-05-06T19:15:08;8.18;;;3.08;;
29838;SDS011;18669;53.356;-1.464;2023-05-06T19:20:40;5.97;;;3.10;;
29838;SDS011;18669;53.356;-1.464;2023-05-06T19:23:25;8.05;;;2.97;;
29838;SDS011;18669;53.356;-1.464;2023-05-06T19:26:10;7.97;;;3.00;;
29838;SDS011;18669;53.356;-1.464;2023-05-06T19:28:55;4.97;;;3.00;;
29838;SDS011;18669;53.356;-1.464;2023-05-06T19:31:40;5.75;;;3.17;;
29838;SDS011;18669;53.356;-1.464;2023-05-06T19:34:25;7.82;;;3.10;;
29838;SDS011;18669;53.356;-1.464;2023-05-06T19:37:11;5.90;;;2.88;;
29838;SDS011;18669;53.356;-1.464;2023-05-06T19:39:58;8.63;;;3.60;;
29838;SDS011;18669;53.356;-1.464;2023-05-06T19:42:44;12.77;;;5.72;;
29838;SDS011;18669;53.356;-1.464;2023-05-06T19:45:33;11.40;;;3.58;;
29838;SDS011;18669;53.356;-1.464;2023-05-06T19:48:18;5.30;;;3.13;;
29838;SDS011;18669;53.356;-1.464;2023-05-06T19:51:05;6.72;;;3.40;;
29838;SDS011;18669;53.356;-1.464;2023-05-06T19:53:50;6.38;;;2.97;;
29838;SDS011;18669;53.356;-1.464;2023-05-06T19:56:36;8.87;;;3.30;;
29838;SDS011;18669;53.356;-1.464;2023-05-06T19:59:23;6.97;;;3.53;;
29838;SDS011;18669;53.356;-1.464;2023-05-06T20:02:09;6.60;;;3.33;;
29838;SDS011;18669;53.356;-1.464;2023-05-06T20:04:57;10.10;;;3.22;;
29838;SDS011;18669;53.356;-1.464;2023-05-06T20:10:30;6.70;;;3.22;;
29838;SDS011;18669;53.356;-1.464;2023-05-06T20:13:19;5.25;;;3.20;;
29838;SDS011;18669;53.356;-1.464;2023-05-06T20:16:09;6.82;;;3.47;;
29838;SDS011;18669;53.356;-1.464;2023-05-06T20:18:54;4.82;;;3.42;;
29838;SDS011;18669;53.356;-1.464;2023-05-06T20:21:40;7.90;;;3.65;;
29838;SDS011;18669;53.356;-1.464;2023-05-06T20:24:26;8.67;;;3.50;;
29838;SDS011;18669;53.356;-1.464;2023-05-06T20:29:57;6.18;;;3.65;;
29838;SDS011;18669;53.356;-1.464;2023-05-06T20:32:42;4.57;;;3.53;;
29838;SDS011;18669;53.356;-1.464;2023-05-06T20:35:27;6.30;;;4.07;;
29838;SDS011;18669;53.356;-1.464;2023-05-06T20:38:12;9.50;;;4.93;;
29838;SDS011;18669;53.356;-1.464;2023-05-06T20:40:59;6.35;;;5.20;;
29838;SDS011;18669;53.356;-1.464;2023-05-06T20:43:46;7.63;;;5.22;;
29838;SDS011;18669;53.356;-1.464;2023-05-06T20:46:31;12.55;;;7.15;;
29838;SDS011;18669;53.356;-1.464;2023-05-06T20:49:16;12.38;;;9.20;;
29838;SDS011;18669;53.356;-1.464;2023-05-06T20:52:02;11.93;;;8.63;;
29838;SDS011;18669;53.356;-1.464;2023-05-06T20:54:49;7.80;;;6.43;;
29838;SDS011;18669;53.356;-1.464;2023-05-06T20:57:37;9.75;;;6.05;;
29838;SDS011;18669;53.356;-1.464;2023-05-06T21:00:25;5.18;;;4.00;;
29838;SDS011;18669;53.356;-1.464;2023-05-06T21:03:10;4.60;;;3.40;;
29838;SDS011;18669;53.356;-1.464;2023-05-06T21:05:55;4.78;;;3.10;;
29838;SDS011;18669;53.356;-1.464;2023-05-06T21:08:40;5.15;;;2.92;;
29838;SDS011;18669;53.356;-1.464;2023-05-06T21:11:25;6.93;;;3.30;;
29838;SDS011;18669;53.356;-1.464;2023-05-06T21:14:09;5.85;;;3.53;;
29838;SDS011;18669;53.356;-1.464;2023-05-06T21:16:55;4.80;;;3.50;;
29838;SDS011;18669;53.356;-1.464;2023-05-06T21:19:40;7.22;;;4.35;;
29838;SDS011;18669;53.356;-1.464;2023-05-06T21:22:25;13.05;;;3.83;;
29838;SDS011;18669;53.356;-1.464;2023-05-06T21:25:09;5.25;;;4.70;;
29838;SDS011;18669;53.356;-1.464;2023-05-06T21:27:56;7.18;;;4.65;;
29838;SDS011;18669;53.356;-1.464;2023-05-06T21:30:41;6.25;;;4.75;;
29838;SDS011;18669;53.356;-1.464;2023-05-06T21:33:25;10.73;;;5.00;;
29838;SDS011;18669;53.356;-1.464;2023-05-06T21:36:10;7.13;;;5.90;;
29838;SDS011;18669;53.356;-1.464;2023-05-06T21:39:00;7.88;;;5.60;;
29838;SDS011;18669;53.356;-1.464;2023-05-06T21:41:55;7.57;;;6.30;;
29838;SDS011;18669;53.356;-1.464;2023-05-06T21:44:39;7.70;;;5.95;;
29838;SDS011;18669;53.356;-1.464;2023-05-06T21:47:24;6.90;;;6.20;;
29838;SDS011;18669;53.356;-1.464;2023-05-06T21:50:10;8.35;;;6.25;;
29838;SDS011;18669;53.356;-1.464;2023-05-06T21:52:55;7.28;;;6.55;;
29838;SDS011;18669;53.356;-1.464;2023-05-06T21:55:40;13.80;;;7.68;;
29838;SDS011;18669;53.356;-1.464;2023-05-06T21:58:25;11.23;;;7.22;;
29838;SDS011;18669;53.356;-1.464;2023-05-06T22:01:09;8.80;;;7.32;;
29838;SDS011;18669;53.356;-1.464;2023-05-06T22:03:54;8.75;;;7.82;;
29838;SDS011;18669;53.356;-1.464;2023-05-06T22:06:39;13.75;;;11.30;;
29838;SDS011;18669;53.356;-1.464;2023-05-06T22:09:24;9.25;;;8.10;;
29838;SDS011;18669;53.356;-1.464;2023-05-06T22:12:09;9.00;;;8.10;;
29838;SDS011;18669;53.356;-1.464;2023-05-06T22:14:55;10.00;;;8.05;;
29838;SDS011;18669;53.356;-1.464;2023-05-06T22:17:40;10.20;;;8.15;;
29838;SDS011;18669;53.356;-1.464;2023-05-06T22:20:25;12.25;;;7.85;;
29838;SDS011;18669;53.356;-1.464;2023-05-06T22:23:10;12.00;;;7.55;;
29838;SDS011;18669;53.356;-1.464;2023-05-06T22:25:55;9.20;;;8.05;;
29838;SDS011;18669;53.356;-1.464;2023-05-06T22:28:40;10.13;;;8.40;;
29838;SDS011;18669;53.356;-1.464;2023-05-06T22:31:25;8.65;;;7.63;;
29838;SDS011;18669;53.356;-1.464;2023-05-06T22:34:10;10.90;;;7.93;;
29838;SDS011;18669;53.356;-1.464;2023-05-06T22:36:55;8.20;;;7.40;;
29838;SDS011;18669;53.356;-1.464;2023-05-06T22:39:40;8.43;;;7.60;;
29838;SDS011;18669;53.356;-1.464;2023-05-06T22:42:25;11.13;;;7.68;;
29838;SDS011;18669;53.356;-1.464;2023-05-06T22:45:10;9.35;;;7.65;;
29838;SDS011;18669;53.356;-1.464;2023-05-06T22:47:55;8.93;;;7.88;;
29838;SDS011;18669;53.356;-1.464;2023-05-06T22:50:40;10.07;;;8.23;;
29838;SDS011;18669;53.356;-1.464;2023-05-06T22:53:25;15.00;;;8.40;;
29838;SDS011;18669;53.356;-1.464;2023-05-06T22:56:10;11.38;;;8.73;;
29838;SDS011;18669;53.356;-1.464;2023-05-06T22:58:55;10.05;;;8.20;;
29838;SDS011;18669;53.356;-1.464;2023-05-06T23:01:40;9.10;;;7.93;;
29838;SDS011;18669;53.356;-1.464;2023-05-06T23:04:25;11.07;;;8.32;;
29838;SDS011;18669;53.356;-1.464;2023-05-06T23:07:09;11.20;;;8.40;;
29838;SDS011;18669;53.356;-1.464;2023-05-06T23:09:54;10.02;;;8.15;;
29838;SDS011;18669;53.356;-1.464;2023-05-06T23:12:39;11.98;;;8.10;;
29838;SDS011;18669;53.356;-1.464;2023-05-06T23:15:25;8.73;;;7.82;;
29838;SDS011;18669;53.356;-1.464;2023-05-06T23:18:10;9.77;;;7.57;;
29838;SDS011;18669;53.356;-1.464;2023-05-06T23:20:55;12.98;;;8.70;;
29838;SDS011;18669;53.356;-1.464;2023-05-06T23:23:39;14.20;;;9.63;;
29838;SDS011;18669;53.356;-1.464;2023-05-06T23:26:24;10.35;;;8.70;;
29838;SDS011;18669;53.356;-1.464;2023-05-06T23:29:09;9.60;;;8.60;;
29838;SDS011;18669;53.356;-1.464;2023-05-06T23:31:54;11.25;;;9.07;;
29838;SDS011;18669;53.356;-1.464;2023-05-06T23:34:39;13.80;;;8.82;;
29838;SDS011;18669;53.356;-1.464;2023-05-06T23:37:24;10.27;;;9.00;;
29838;SDS011;18669;53.356;-1.464;2023-05-06T23:40:10;10.88;;;9.35;;
29838;SDS011;18669;53.356;-1.464;2023-05-06T23:42:57;12.70;;;10.02;;
29838;SDS011;18669;53.356;-1.464;2023-05-06T23:45:42;12.90;;;10.07;;
29838;SDS011;18669;53.356;-1.464;2023-05-06T23:48:27;13.05;;;10.52;;
29838;SDS011;18669;53.356;-1.464;2023-05-06T23:51:11;12.80;;;9.93;;
29838;SDS011;18669;53.356;-1.464;2023-05-06T23:53:57;11.90;;;8.88;;
29838;SDS011;18669;53.356;-1.464;2023-05-06T23:56:41;14.70;;;10.48;;
29838;SDS011;18669;53.356;-1.464;2023-05-06T23:59:30;15.15;;;11.93;;
